Nearby Meteorological Terminal Aviation Routine Weather Reports (METAR)
KAVP - Avoca/Wilkes B., Pennsylvania, USA
Distance from station: NE 13mi, 20km
Updated: Sun, 29-Mar-2020 8:06pm EDT
Overcast
Overcast
 Wind from calm
Wind: Calm
Temperature: 54°F , 12°C
Dew Point: 46°F , 8°C
Humidity: 77%
Barometer: 29.82 inHg , 1009.8 hPa
Clouds: Overcast
Visibility: 10 miles , 16 km
Cloud details: Overcast 1500 ft
2020/03/30 00:06 KAVP 300006Z 00000KT 10SM OVC015 12/08 A2982 RMK AO2 T01170083
KMPO - Mt. Pocono, Pennsylvania, USA
Distance from station: ESE 28mi, 45km
Updated: Sun, 29-Mar-2020 7:53pm EDT
Fog, Overcast
Fog, Overcast
 Wind from E
Wind: E 5 mph , 7 km/h
Temperature: 43°F , 6°C
Wind Chill: 40°F , 4°C
Dew Point: 43°F , 6°C
Humidity: 100%
Barometer: 29.83 inHg , 1010.2 hPa
Summary: Fog
Clouds: Overcast
Visibility: 1/4 mile , 0.4 km
Cloud details: Overcast 200 ft
2020/03/29 23:53 KMPO 292353Z AUTO 10004KT 1/4SM FG VV002 06/06 A2983 RMK AO2 SLP113 T00610061 10072 20061 53004
 
KABE - Allentown, Pennsylvania, USA
Distance from station: SSE 46mi, 74km
Updated: Sun, 29-Mar-2020 7:51pm EDT
Mist, Overcast
Mist, Overcast
 Wind from E
Wind: E 7 mph , 11 km/h
Temperature: 50°F , 10°C
Wind Chill: 47°F , 8°C
Dew Point: 46°F , 8°C
Humidity: 88%
Barometer: 29.86 inHg , 1011.2 hPa
Summary: Mist
Clouds: Overcast
Visibility: 2 1/2 miles , 4 km
Cloud details: Overcast 500 ft
2020/03/29 23:51 KABE 292351Z 08006KT 2 1/2SM BR OVC005 10/08 A2986 RMK AO2 SLP112 T01000078 10111 20100 53006
KXLL - Allentown Queen, Pennsylvania, USA
Distance from station: SSE 50mi, 81km
Updated: Sun, 29-Mar-2020 7:55pm EDT
Mist, Overcast
Mist, Overcast
 Wind from ENE
Wind: ENE 3 mph , 6 km/h
Temperature: 48°F , 9°C
Dew Point: 48°F , 9°C
Humidity: 100%
Barometer: 29.87 inHg , 1011.5 hPa
Summary: Mist
Clouds: Overcast
Visibility: 1 3/4 miles , 2.8 km
Cloud details: Overcast 400 ft
2020/03/29 23:55 KXLL 292355Z AUTO 06003KT 1 3/4SM BR OVC004 09/09 A2987 RMK AO2
 
KIPT - Williamsport, Pennsylvania, USA
Distance from station: W 52mi, 84km
Updated: Sun, 29-Mar-2020 7:54pm EDT
Overcast
Overcast
 Wind from calm
Wind: Calm
Temperature: 52°F , 11°C
Dew Point: 46°F , 8°C
Humidity: 82%
Barometer: 29.80 inHg , 1009.1 hPa
Clouds: Overcast
Visibility: 10 miles , 16 km
Cloud details: Overcast 800 ft
2020/03/29 23:54 KIPT 292354Z 00000KT 10SM OVC008 11/08 A2980 RMK AO2 SLP093 60000 T01060083 10106 20094 53015 $
KSEG - Selinsgrove, Pennsylvania, USA
Distance from station: WSW 57mi, 92km
Updated: Sun, 29-Mar-2020 7:53pm EDT
Mist, Overcast
Mist, Overcast
 Wind from calm
Wind: Calm
Temperature: 50°F , 10°C
Dew Point: 48°F , 9°C
Humidity: 94%
Barometer: 29.82 inHg , 1009.8 hPa
Summary: Mist
Clouds: Overcast
Visibility: 1 3/4 miles , 2.8 km
Cloud details: Overcast 400 ft
2020/03/29 23:53 KSEG 292353Z AUTO 00000KT 1 3/4SM BR OVC004 10/09 A2982 RMK AO2 CIG 003V007 SLP099 T01000094 10111 20094 51016
 
KRDG - Reading, Pennsylvania, USA
Distance from station: S 59mi, 95km
Updated: Sun, 29-Mar-2020 8:01pm EDT
Mist, Overcast
Mist, Overcast
 Wind from E
Wind: E 3 mph , 6 km/h
Temperature: 52°F , 11°C
Dew Point: 50°F , 10°C
Humidity: 94%
Barometer: 29.83 inHg , 1010.2 hPa
Summary: Mist
Clouds: Overcast
Visibility: 2 miles , 3 km
Cloud details: Overcast 400 ft
2020/03/30 00:01 KRDG 300001Z 08003KT 2SM BR OVC004 11/10 A2983 RMK AO2 T01060100
KUKT - Quakertown Arp, Pennsylvania, USA
Distance from station: SSE 61mi, 98km
Updated: Sun, 29-Mar-2020 7:55pm EDT
Mist, Overcast
Mist, Overcast
 Wind from calm
Wind: Calm
Temperature: 48°F , 9°C
Dew Point: 48°F , 9°C
Humidity: 100%
Barometer: 29.86 inHg , 1011.2 hPa
Summary: Mist
Clouds: Overcast
Visibility: 1 3/4 miles , 2.8 km
Cloud details: Overcast 300 ft
2020/03/29 23:55 KUKT 292355Z AUTO 00000KT 1 3/4SM BR OVC003 09/09 A2986 RMK A01
 
K12N - Andover, New Jersey, USA
Distance from station: ESE 63mi, 101km
Updated: Sun, 29-Mar-2020 7:54pm EDT

 Wind from calm
Wind: Calm
Temperature: 46°F , 8°C
Dew Point: 45°F , 7°C
Humidity: 93%
Barometer: 29.86 inHg , 1011.2 hPa
2020/03/29 23:54 K12N 292354Z AUTO 00000KT 08/07 A2986 RMK AO1 SLP115 T00830072 10094 20083 53004
KMUI - Muir Aaf/Indiant, Pennsylvania, USA
Distance from station: SSW 65mi, 105km
Updated: Sun, 29-Mar-2020 7:56pm EDT
Mist, Overcast
Mist, Overcast
 Wind from NE
Wind: NE 3 mph , 6 km/h
Temperature: 50°F , 10°C
Dew Point: 50°F , 10°C
Humidity: 100%
Barometer: 29.83 inHg , 1010.2 hPa
Summary: Mist
Clouds: Overcast
Visibility: 2 miles , 3 km
Cloud details: Overcast 300 ft
2020/03/29 23:56 KMUI 292356Z AUTO 05003KT 2SM BR OVC003 10/10 A2983 RMK AO2 SLP106 T00960096 10097 20086 52014
 
KFWN - Sussex, New Jersey, USA
Distance from station: E 66mi, 107km
Updated: Sun, 29-Mar-2020 7:53pm EDT
Overcast
Overcast
 Wind from varies
Wind: varies 5 mph , 7 km/h
Temperature: 48°F , 9°C
Wind Chill: 46°F , 8°C
Dew Point: 45°F , 7°C
Humidity: 87%
Barometer: 29.86 inHg , 1011.2 hPa
Clouds: Overcast
Visibility: 9 miles , 14 km
Cloud details: Overcast 800 ft
2020/03/29 23:53 KFWN 292353Z AUTO VRB04KT 9SM OVC008 09/07 A2986 RMK AO2 CIG 005V011 SLP113 60000 T00890072 10094 20089 51004
KMSV - Monticello, New York, USA
Distance from station: ENE 67mi, 108km
Updated: Sun, 29-Mar-2020 7:56pm EDT
Light rain, Overcast
Light rain, Overcast
 Wind from E
Wind: E 10 mph , 17 km/h
Temperature: 45°F , 7°C
Wind Chill: 40°F , 4°C
Barometer: 29.86 inHg , 1011.2 hPa
Summary: Light rain
Clouds: Overcast
Visibility: 6 miles , 10 km
Cloud details: Overcast 400 ft
2020/03/29 23:56 KMSV 292356Z AUTO 09009KT 6SM -RA OVC004 07/ A2986 RMK AO2 RAB25 SLP118 P0000 60001 T0067 10078 20067 51006
 
KBGM - Binghamton, New York, USA
Distance from station: N 69mi, 111km
Updated: Sun, 29-Mar-2020 7:53pm EDT
Overcast
Overcast
 Wind from S
Wind: S 3 mph , 6 km/h
Temperature: 48°F , 9°C
Dew Point: 46°F , 8°C
Humidity: 94%
Barometer: 29.80 inHg , 1009.1 hPa
Clouds: Overcast
Visibility: 10 miles , 16 km
Cloud details: Overcast 400 ft
2020/03/29 23:53 KBGM 292353Z 19003KT 10SM OVC004 09/08 A2980 RMK AO2 PRESRR SLP097 T00940083 10100 20089 53027
KPTW - Pottstown, Pennsylvania, USA
Distance from station: SSE 71mi, 114km
Updated: Sun, 29-Mar-2020 7:54pm EDT
Mist, Overcast
Mist, Overcast
 Wind from ENE
Wind: ENE 3 mph , 6 km/h
Temperature: 48°F , 9°C
Dew Point: 48°F , 9°C
Humidity: 100%
Barometer: 29.87 inHg , 1011.5 hPa
Summary: Mist
Clouds: Overcast
Visibility: 1 1/2 miles , 2.4 km
Cloud details: Overcast 300 ft
2020/03/29 23:54 KPTW 292354Z AUTO 06003KT 1 1/2SM BR OVC003 09/09 A2987 RMK AO2 SLP112 T00890089 10089 20078 52014
 
KDYL - Doylestown, Pennsylvania, USA
Distance from station: SE 74mi, 119km
Updated: Sun, 29-Mar-2020 7:54pm EDT
Mist, Overcast
Mist, Overcast
 Wind from NE
Wind: NE 6 mph , 9 km/h
Temperature: 48°F , 9°C
Wind Chill: 45°F , 7°C
Dew Point: 46°F , 8°C
Humidity: 94%
Barometer: 29.85 inHg , 1010.8 hPa
Summary: Mist
Clouds: Overcast
Visibility: 3 miles , 5 km
Cloud details: Overcast 200 ft
2020/03/29 23:54 KDYL 292354Z AUTO 04005KT 3SM BR OVC002 09/08 A2985 RMK AO2 SLP110 T00940083 10100 20094 53001
KSMQ - Somerville, New Jersey, USA
Distance from station: ESE 77mi, 124km
Updated: Sun, 29-Mar-2020 7:53pm EDT
Mist, Overcast
Mist, Overcast
 Wind from N
Wind: N 6 mph , 9 km/h
Temperature: 48°F , 9°C
Wind Chill: 45°F , 7°C
Dew Point: 45°F , 7°C
Humidity: 87%
Barometer: 29.86 inHg , 1011.2 hPa
Summary: Mist
Clouds: Overcast
Visibility: 5 miles , 8 km
Cloud details: Overcast 800 ft
2020/03/29 23:53 KSMQ 292353Z AUTO 01005KT 5SM BR OVC008 09/07 A2986 RMK AO2 SLP112 60001 T00890072 10100 20089 53006
 
KLNS - Lancaster, Pennsylvania, USA
Distance from station: SSW 79mi, 127km
Updated: Sun, 29-Mar-2020 8:04pm EDT
Mist, Overcast
Mist, Overcast
 Wind from E
Wind: E 7 mph , 11 km/h
Temperature: 52°F , 11°C
Dew Point: 48°F , 9°C
Humidity: 88%
Barometer: 29.83 inHg , 1010.2 hPa
Summary: Mist
Clouds: Overcast
Visibility: 3/4 mile , 1.2 km
Cloud details: Overcast 200 ft
2020/03/30 00:04 KLNS 300004Z 09006KT 3/4SM BR VV002 11/09 A2983 RMK AO2 T01110094
KELM - Elmira, New York, USA
Distance from station: NW 82mi, 132km
Updated: Sun, 29-Mar-2020 7:53pm EDT
Overcast
Overcast
 Wind from WSW
Wind: WSW 5 mph , 7 km/h
Temperature: 55°F , 13°C
Dew Point: 48°F , 9°C
Humidity: 77%
Barometer: 29.77 inHg , 1008.1 hPa
Clouds: Overcast
Visibility: 10 miles , 16 km
Cloud details: Overcast 1800 ft
2020/03/29 23:53 KELM 292353Z 24004KT 10SM OVC018 13/09 A2977 RMK AO2 SLP084 60000 T01280094 10150 20128 53024
 
KLOM - Philly Wings F, Pennsylvania, USA
Distance from station: SSE 82mi, 132km
Updated: Sun, 29-Mar-2020 7:55pm EDT
Mist, Overcast
Mist, Overcast
 Wind from NE
Wind: NE 5 mph , 7 km/h
Temperature: 50°F , 10°C
Wind Chill: 48°F , 9°C
Dew Point: 50°F , 10°C
Humidity: 100%
Barometer: 29.85 inHg , 1010.8 hPa
Summary: Mist
Clouds: Overcast
Visibility: 1 1/2 miles , 2.4 km
Cloud details: Overcast 200 ft
2020/03/29 23:55 KLOM 292355Z AUTO 05004KT 1 1/2SM BR OVC002 10/10 A2985 RMK AO2 T00970097 10102 20091 401020074
KMMU - Morristown Muni, New Jersey, USA
Distance from station: ESE 83mi, 134km
Updated: Sun, 29-Mar-2020 7:45pm EDT
Mist, Overcast
Mist, Overcast
 Wind from NE
Wind: NE 8 mph , 13 km/h
Temperature: 46°F , 8°C
Wind Chill: 42°F , 6°C
Dew Point: 46°F , 8°C
Humidity: 100%
Barometer: 29.88 inHg , 1011.9 hPa
Summary: Mist
Clouds: Overcast
Visibility: 2 miles , 3 km
Cloud details: Overcast 500 ft
2020/03/29 23:45 KMMU 292345Z 05007KT 2SM BR OVC005 08/08 A2988

Metar display script from Saratoga-Weather.org


Cairn Terrier Rescue
teddybearweather.com 2009-2018